sensor_id;sensor_type;location;lat;lon;timestamp;temperature;humidity
22185;DHT22;11258;52.516;13.318;2023-01-15T00:01:43;9.00;99.90
22185;DHT22;11258;52.516;13.318;2023-01-15T00:04:12;9.10;99.90
22185;DHT22;11258;52.516;13.318;2023-01-15T00:06:40;9.10;99.90
22185;DHT22;11258;52.516;13.318;2023-01-15T00:09:07;9.10;99.90
22185;DHT22;11258;52.516;13.318;2023-01-15T00:11:33;9.20;99.90
22185;DHT22;11258;52.516;13.318;2023-01-15T00:13:59;9.20;99.90
22185;DHT22;11258;52.516;13.318;2023-01-15T00:16:26;9.10;99.90
22185;DHT22;11258;52.516;13.318;2023-01-15T00:18:57;9.10;99.90
22185;DHT22;11258;52.516;13.318;2023-01-15T00:21:24;9.20;99.90
22185;DHT22;11258;52.516;13.318;2023-01-15T00:23:50;9.20;99.90
22185;DHT22;11258;52.516;13.318;2023-01-15T00:26:35;9.20;99.90
22185;DHT22;11258;52.516;13.318;2023-01-15T00:29:21;9.20;99.90
22185;DHT22;11258;52.516;13.318;2023-01-15T00:31:56;9.20;99.90
22185;DHT22;11258;52.516;13.318;2023-01-15T00:34:23;9.20;99.90
22185;DHT22;11258;52.516;13.318;2023-01-15T00:36:49;9.20;99.90
22185;DHT22;11258;52.516;13.318;2023-01-15T00:39:15;9.20;99.90
22185;DHT22;11258;52.516;13.318;2023-01-15T00:41:40;9.20;99.90
22185;DHT22;11258;52.516;13.318;2023-01-15T00:44:06;9.20;99.90
22185;DHT22;11258;52.516;13.318;2023-01-15T00:46:32;9.20;99.90
22185;DHT22;11258;52.516;13.318;2023-01-15T00:48:58;9.20;99.90
22185;DHT22;11258;52.516;13.318;2023-01-15T00:51:23;9.20;99.90
22185;DHT22;11258;52.516;13.318;2023-01-15T00:53:49;9.20;99.90
22185;DHT22;11258;52.516;13.318;2023-01-15T00:56:15;9.30;99.90
22185;DHT22;11258;52.516;13.318;2023-01-15T00:58:40;9.30;99.90
22185;DHT22;11258;52.516;13.318;2023-01-15T01:01:06;9.30;99.90
22185;DHT22;11258;52.516;13.318;2023-01-15T01:03:32;9.20;99.90
22185;DHT22;11258;52.516;13.318;2023-01-15T01:06:01;9.20;99.90
22185;DHT22;11258;52.516;13.318;2023-01-15T01:08:28;9.20;99.90
22185;DHT22;11258;52.516;13.318;2023-01-15T01:11:09;9.20;99.90
22185;DHT22;11258;52.516;13.318;2023-01-15T01:13:36;9.20;99.90
22185;DHT22;11258;52.516;13.318;2023-01-15T01:16:02;9.20;99.90
22185;DHT22;11258;52.516;13.318;2023-01-15T01:18:28;9.20;99.90
22185;DHT22;11258;52.516;13.318;2023-01-15T01:20:53;9.30;99.90
22185;DHT22;11258;52.516;13.318;2023-01-15T01:23:20;9.30;99.90
22185;DHT22;11258;52.516;13.318;2023-01-15T01:25:46;9.30;99.90
22185;DHT22;11258;52.516;13.318;2023-01-15T01:28:12;9.40;99.90
22185;DHT22;11258;52.516;13.318;2023-01-15T01:30:37;9.40;99.90
22185;DHT22;11258;52.516;13.318;2023-01-15T01:33:03;9.40;99.90
22185;DHT22;11258;52.516;13.318;2023-01-15T01:35:29;9.40;99.90
22185;DHT22;11258;52.516;13.318;2023-01-15T01:37:55;9.40;99.90
22185;DHT22;11258;52.516;13.318;2023-01-15T01:40:20;9.40;99.90
22185;DHT22;11258;52.516;13.318;2023-01-15T01:42:46;9.50;99.90
22185;DHT22;11258;52.516;13.318;2023-01-15T01:47:52;9.40;99.90
22185;DHT22;11258;52.516;13.318;2023-01-15T01:50:19;9.40;99.90
22185;DHT22;11258;52.516;13.318;2023-01-15T01:52:48;9.50;99.90
22185;DHT22;11258;52.516;13.318;2023-01-15T01:55:17;9.50;99.90
22185;DHT22;11258;52.516;13.318;2023-01-15T01:57:46;9.50;99.90
22185;DHT22;11258;52.516;13.318;2023-01-15T02:00:12;9.50;99.90
22185;DHT22;11258;52.516;13.318;2023-01-15T02:02:41;9.50;99.90
22185;DHT22;11258;52.516;13.318;2023-01-15T02:05:54;9.50;99.90
22185;DHT22;11258;52.516;13.318;2023-01-15T02:08:00;9.50;99.90
22185;DHT22;11258;52.516;13.318;2023-01-15T02:10:26;9.50;99.90
22185;DHT22;11258;52.516;13.318;2023-01-15T02:13:15;9.50;99.90
22185;DHT22;11258;52.516;13.318;2023-01-15T02:15:49;9.40;99.90
22185;DHT22;11258;52.516;13.318;2023-01-15T02:18:33;9.40;99.90
22185;DHT22;11258;52.516;13.318;2023-01-15T02:21:10;9.40;99.90
22185;DHT22;11258;52.516;13.318;2023-01-15T02:29:41;9.40;99.90
22185;DHT22;11258;52.516;13.318;2023-01-15T02:32:29;9.30;99.90
22185;DHT22;11258;52.516;13.318;2023-01-15T02:35:00;9.30;99.90
22185;DHT22;11258;52.516;13.318;2023-01-15T02:37:29;9.30;99.90
22185;DHT22;11258;52.516;13.318;2023-01-15T02:39:59;9.30;99.90
22185;DHT22;11258;52.516;13.318;2023-01-15T02:42:27;9.30;99.90
22185;DHT22;11258;52.516;13.318;2023-01-15T02:44:56;9.30;99.90
22185;DHT22;11258;52.516;13.318;2023-01-15T02:47:26;9.30;99.90
22185;DHT22;11258;52.516;13.318;2023-01-15T02:49:54;9.30;99.90
22185;DHT22;11258;52.516;13.318;2023-01-15T02:52:28;9.30;99.90
22185;DHT22;11258;52.516;13.318;2023-01-15T02:54:59;9.30;99.90
22185;DHT22;11258;52.516;13.318;2023-01-15T02:57:27;9.30;99.90
22185;DHT22;11258;52.516;13.318;2023-01-15T02:59:56;9.30;99.90
22185;DHT22;11258;52.516;13.318;2023-01-15T03:02:27;9.30;99.90
22185;DHT22;11258;52.516;13.318;2023-01-15T03:05:10;9.30;99.90
22185;DHT22;11258;52.516;13.318;2023-01-15T03:07:41;9.30;99.90
22185;DHT22;11258;52.516;13.318;2023-01-15T03:10:09;9.30;99.90
22185;DHT22;11258;52.516;13.318;2023-01-15T03:12:45;9.30;99.90
22185;DHT22;11258;52.516;13.318;2023-01-15T03:15:51;9.30;99.90
22185;DHT22;11258;52.516;13.318;2023-01-15T03:24:04;9.30;99.90
22185;DHT22;11258;52.516;13.318;2023-01-15T03:26:30;9.30;99.90
22185;DHT22;11258;52.516;13.318;2023-01-15T03:28:56;9.30;99.90
22185;DHT22;11258;52.516;13.318;2023-01-15T03:31:22;9.30;99.90
22185;DHT22;11258;52.516;13.318;2023-01-15T03:33:48;9.30;99.90
22185;DHT22;11258;52.516;13.318;2023-01-15T03:36:14;9.30;99.90
22185;DHT22;11258;52.516;13.318;2023-01-15T03:38:40;9.30;99.90
22185;DHT22;11258;52.516;13.318;2023-01-15T03:41:18;9.30;99.90
22185;DHT22;11258;52.516;13.318;2023-01-15T03:52:46;9.30;99.90
22185;DHT22;11258;52.516;13.318;2023-01-15T03:57:48;9.30;99.90
22185;DHT22;11258;52.516;13.318;2023-01-15T04:00:27;9.30;99.90
22185;DHT22;11258;52.516;13.318;2023-01-15T04:02:55;9.30;99.90
22185;DHT22;11258;52.516;13.318;2023-01-15T04:05:23;9.40;99.90
22185;DHT22;11258;52.516;13.318;2023-01-15T04:07:50;9.20;99.90
22185;DHT22;11258;52.516;13.318;2023-01-15T04:10:17;9.00;99.90
22185;DHT22;11258;52.516;13.318;2023-01-15T04:12:43;8.80;99.90
22185;DHT22;11258;52.516;13.318;2023-01-15T04:15:10;8.70;99.90
22185;DHT22;11258;52.516;13.318;2023-01-15T04:17:36;8.60;99.90
22185;DHT22;11258;52.516;13.318;2023-01-15T04:20:02;8.50;99.90
22185;DHT22;11258;52.516;13.318;2023-01-15T04:22:28;8.50;99.90
22185;DHT22;11258;52.516;13.318;2023-01-15T04:24:55;8.40;99.90
22185;DHT22;11258;52.516;13.318;2023-01-15T04:27:21;8.30;99.90
22185;DHT22;11258;52.516;13.318;2023-01-15T04:29:47;8.30;99.90
22185;DHT22;11258;52.516;13.318;2023-01-15T04:32:12;8.20;99.90
22185;DHT22;11258;52.516;13.318;2023-01-15T04:34:38;8.00;99.90
22185;DHT22;11258;52.516;13.318;2023-01-15T04:37:03;7.90;99.90
22185;DHT22;11258;52.516;13.318;2023-01-15T04:39:29;7.70;99.90
22185;DHT22;11258;52.516;13.318;2023-01-15T04:41:55;7.60;99.90
22185;DHT22;11258;52.516;13.318;2023-01-15T04:44:39;7.60;99.90
22185;DHT22;11258;52.516;13.318;2023-01-15T04:47:05;7.50;99.90
22185;DHT22;11258;52.516;13.318;2023-01-15T04:49:30;7.50;99.90
22185;DHT22;11258;52.516;13.318;2023-01-15T04:51:56;7.40;99.90
22185;DHT22;11258;52.516;13.318;2023-01-15T04:54:22;7.40;99.90
22185;DHT22;11258;52.516;13.318;2023-01-15T04:56:50;7.30;99.90
22185;DHT22;11258;52.516;13.318;2023-01-15T04:59:18;7.30;99.90
22185;DHT22;11258;52.516;13.318;2023-01-15T05:01:44;7.40;99.90
22185;DHT22;11258;52.516;13.318;2023-01-15T05:04:10;7.30;99.90
22185;DHT22;11258;52.516;13.318;2023-01-15T05:06:36;7.30;99.90
22185;DHT22;11258;52.516;13.318;2023-01-15T05:09:03;7.30;99.90
22185;DHT22;11258;52.516;13.318;2023-01-15T05:11:29;7.20;99.90
22185;DHT22;11258;52.516;13.318;2023-01-15T05:13:55;7.20;99.90
22185;DHT22;11258;52.516;13.318;2023-01-15T05:16:23;7.20;99.90
22185;DHT22;11258;52.516;13.318;2023-01-15T05:18:51;7.20;99.90
22185;DHT22;11258;52.516;13.318;2023-01-15T05:21:40;7.30;99.90
22185;DHT22;11258;52.516;13.318;2023-01-15T05:24:06;7.30;99.90
22185;DHT22;11258;52.516;13.318;2023-01-15T05:26:34;7.30;99.90
22185;DHT22;11258;52.516;13.318;2023-01-15T05:29:00;7.20;99.90
22185;DHT22;11258;52.516;13.318;2023-01-15T05:31:26;7.20;99.90
22185;DHT22;11258;52.516;13.318;2023-01-15T05:33:53;7.20;99.90
22185;DHT22;11258;52.516;13.318;2023-01-15T05:36:25;7.20;99.90
22185;DHT22;11258;52.516;13.318;2023-01-15T05:38:52;7.20;99.90
22185;DHT22;11258;52.516;13.318;2023-01-15T05:41:21;7.20;99.90
22185;DHT22;11258;52.516;13.318;2023-01-15T05:44:08;7.10;99.90
22185;DHT22;11258;52.516;13.318;2023-01-15T05:46:36;7.10;99.90
22185;DHT22;11258;52.516;13.318;2023-01-15T05:49:04;7.10;99.90
22185;DHT22;11258;52.516;13.318;2023-01-15T05:51:30;7.10;99.90
22185;DHT22;11258;52.516;13.318;2023-01-15T05:53:56;7.10;99.90
22185;DHT22;11258;52.516;13.318;2023-01-15T05:56:22;7.10;99.90
22185;DHT22;11258;52.516;13.318;2023-01-15T05:58:48;7.10;99.90
22185;DHT22;11258;52.516;13.318;2023-01-15T06:01:14;7.00;99.90
22185;DHT22;11258;52.516;13.318;2023-01-15T06:03:40;7.10;99.90
22185;DHT22;11258;52.516;13.318;2023-01-15T06:06:17;7.10;99.90
22185;DHT22;11258;52.516;13.318;2023-01-15T06:08:44;7.10;99.90
22185;DHT22;11258;52.516;13.318;2023-01-15T06:11:10;7.10;99.90
22185;DHT22;11258;52.516;13.318;2023-01-15T06:13:36;7.10;99.90
22185;DHT22;11258;52.516;13.318;2023-01-15T06:16:04;7.10;99.90
22185;DHT22;11258;52.516;13.318;2023-01-15T06:18:30;7.10;99.90
22185;DHT22;11258;52.516;13.318;2023-01-15T06:21:02;7.10;99.90
22185;DHT22;11258;52.516;13.318;2023-01-15T06:23:28;7.20;99.90
22185;DHT22;11258;52.516;13.318;2023-01-15T06:25:54;7.20;99.90
22185;DHT22;11258;52.516;13.318;2023-01-15T06:28:19;7.20;99.90
22185;DHT22;11258;52.516;13.318;2023-01-15T06:30:45;7.20;99.90
22185;DHT22;11258;52.516;13.318;2023-01-15T06:33:10;7.20;99.90
22185;DHT22;11258;52.516;13.318;2023-01-15T06:35:36;7.30;99.90
22185;DHT22;11258;52.516;13.318;2023-01-15T06:38:01;7.20;99.90
22185;DHT22;11258;52.516;13.318;2023-01-15T06:40:27;7.10;99.90
22185;DHT22;11258;52.516;13.318;2023-01-15T06:42:56;7.20;99.90
22185;DHT22;11258;52.516;13.318;2023-01-15T06:45:40;7.20;99.90
22185;DHT22;11258;52.516;13.318;2023-01-15T06:48:25;7.20;99.90
22185;DHT22;11258;52.516;13.318;2023-01-15T06:50:51;7.20;99.90
22185;DHT22;11258;52.516;13.318;2023-01-15T06:53:18;7.10;99.90
22185;DHT22;11258;52.516;13.318;2023-01-15T06:55:44;7.00;99.90
22185;DHT22;11258;52.516;13.318;2023-01-15T06:58:10;7.00;99.90
22185;DHT22;11258;52.516;13.318;2023-01-15T07:00:36;7.00;99.90
22185;DHT22;11258;52.516;13.318;2023-01-15T07:03:03;7.10;99.90
22185;DHT22;11258;52.516;13.318;2023-01-15T07:05:28;7.10;99.90
22185;DHT22;11258;52.516;13.318;2023-01-15T07:07:56;7.20;99.90
22185;DHT22;11258;52.516;13.318;2023-01-15T07:10:21;7.20;99.90
22185;DHT22;11258;52.516;13.318;2023-01-15T07:12:47;7.20;99.90
22185;DHT22;11258;52.516;13.318;2023-01-15T07:15:13;7.10;99.90
22185;DHT22;11258;52.516;13.318;2023-01-15T07:17:38;7.10;99.90
22185;DHT22;11258;52.516;13.318;2023-01-15T07:20:04;7.10;99.90
22185;DHT22;11258;52.516;13.318;2023-01-15T07:22:30;7.00;99.90
22185;DHT22;11258;52.516;13.318;2023-01-15T07:24:56;6.90;99.90
22185;DHT22;11258;52.516;13.318;2023-01-15T07:27:22;7.00;99.90
22185;DHT22;11258;52.516;13.318;2023-01-15T07:29:47;7.00;99.90
22185;DHT22;11258;52.516;13.318;2023-01-15T07:32:15;7.00;99.90
22185;DHT22;11258;52.516;13.318;2023-01-15T07:34:40;7.00;99.90
22185;DHT22;11258;52.516;13.318;2023-01-15T07:37:06;6.90;99.90
22185;DHT22;11258;52.516;13.318;2023-01-15T07:39:32;6.90;99.90
22185;DHT22;11258;52.516;13.318;2023-01-15T07:41:58;6.90;99.90
22185;DHT22;11258;52.516;13.318;2023-01-15T07:44:42;6.90;99.90
22185;DHT22;11258;52.516;13.318;2023-01-15T07:47:27;7.00;99.90
22185;DHT22;11258;52.516;13.318;2023-01-15T07:50:19;6.90;99.90
22185;DHT22;11258;52.516;13.318;2023-01-15T07:52:45;6.90;99.90
22185;DHT22;11258;52.516;13.318;2023-01-15T07:55:11;7.00;99.90
22185;DHT22;11258;52.516;13.318;2023-01-15T07:57:38;7.00;99.90
22185;DHT22;11258;52.516;13.318;2023-01-15T08:00:06;7.00;99.90
22185;DHT22;11258;52.516;13.318;2023-01-15T08:02:32;6.90;99.90
22185;DHT22;11258;52.516;13.318;2023-01-15T08:04:57;6.90;99.90
22185;DHT22;11258;52.516;13.318;2023-01-15T08:07:23;6.90;99.90
22185;DHT22;11258;52.516;13.318;2023-01-15T08:09:49;6.90;99.90
22185;DHT22;11258;52.516;13.318;2023-01-15T08:12:14;6.80;99.90
22185;DHT22;11258;52.516;13.318;2023-01-15T08:14:59;6.90;99.90
22185;DHT22;11258;52.516;13.318;2023-01-15T08:17:48;7.00;99.90
22185;DHT22;11258;52.516;13.318;2023-01-15T08:20:17;6.80;99.90
22185;DHT22;11258;52.516;13.318;2023-01-15T08:22:44;6.70;99.90
22185;DHT22;11258;52.516;13.318;2023-01-15T08:25:11;6.80;99.90
22185;DHT22;11258;52.516;13.318;2023-01-15T08:27:38;6.80;99.90
22185;DHT22;11258;52.516;13.318;2023-01-15T08:30:06;6.70;99.90
22185;DHT22;11258;52.516;13.318;2023-01-15T08:32:32;6.80;99.90
22185;DHT22;11258;52.516;13.318;2023-01-15T08:34:57;6.70;99.90
22185;DHT22;11258;52.516;13.318;2023-01-15T08:37:23;6.70;99.90
22185;DHT22;11258;52.516;13.318;2023-01-15T08:39:49;6.80;99.90
22185;DHT22;11258;52.516;13.318;2023-01-15T08:42:18;6.90;99.90
22185;DHT22;11258;52.516;13.318;2023-01-15T08:44:44;6.90;99.90
22185;DHT22;11258;52.516;13.318;2023-01-15T08:47:10;6.90;99.90
22185;DHT22;11258;52.516;13.318;2023-01-15T08:49:35;7.00;99.90
22185;DHT22;11258;52.516;13.318;2023-01-15T08:52:01;7.00;99.90
22185;DHT22;11258;52.516;13.318;2023-01-15T08:54:27;7.10;99.90
22185;DHT22;11258;52.516;13.318;2023-01-15T08:56:52;7.20;99.90
22185;DHT22;11258;52.516;13.318;2023-01-15T08:59:18;7.10;99.90
22185;DHT22;11258;52.516;13.318;2023-01-15T09:01:44;7.10;99.90
22185;DHT22;11258;52.516;13.318;2023-01-15T09:04:15;7.20;99.90
22185;DHT22;11258;52.516;13.318;2023-01-15T09:06:41;7.20;99.90
22185;DHT22;11258;52.516;13.318;2023-01-15T09:09:07;7.20;99.90
22185;DHT22;11258;52.516;13.318;2023-01-15T09:11:33;7.30;99.90
22185;DHT22;11258;52.516;13.318;2023-01-15T09:13:59;7.40;99.90
22185;DHT22;11258;52.516;13.318;2023-01-15T09:16:24;7.30;99.90
22185;DHT22;11258;52.516;13.318;2023-01-15T09:18:52;7.30;99.90
22185;DHT22;11258;52.516;13.318;2023-01-15T09:21:18;7.30;99.90
22185;DHT22;11258;52.516;13.318;2023-01-15T09:23:44;7.30;99.90
22185;DHT22;11258;52.516;13.318;2023-01-15T09:26:28;7.30;99.90
22185;DHT22;11258;52.516;13.318;2023-01-15T09:28:55;7.40;99.90
22185;DHT22;11258;52.516;13.318;2023-01-15T09:31:21;7.40;99.90
22185;DHT22;11258;52.516;13.318;2023-01-15T09:33:47;7.50;99.90
22185;DHT22;11258;52.516;13.318;2023-01-15T09:36:18;7.60;99.90
22185;DHT22;11258;52.516;13.318;2023-01-15T09:38:44;7.70;99.90
22185;DHT22;11258;52.516;13.318;2023-01-15T09:41:14;7.70;99.90
22185;DHT22;11258;52.516;13.318;2023-01-15T09:55:39;7.70;99.90
22185;DHT22;11258;52.516;13.318;2023-01-15T09:57:39;7.70;99.90
22185;DHT22;11258;52.516;13.318;2023-01-15T10:00:18;7.80;99.90
22185;DHT22;11258;52.516;13.318;2023-01-15T10:03:05;7.70;99.90
22185;DHT22;11258;52.516;13.318;2023-01-15T10:05:37;7.90;99.90
22185;DHT22;11258;52.516;13.318;2023-01-15T10:08:23;7.90;99.90
22185;DHT22;11258;52.516;13.318;2023-01-15T10:11:00;7.90;99.90
22185;DHT22;11258;52.516;13.318;2023-01-15T10:13:47;8.00;99.90
22185;DHT22;11258;52.516;13.318;2023-01-15T10:16:30;8.10;99.90
22185;DHT22;11258;52.516;13.318;2023-01-15T10:18:56;8.10;99.90
22185;DHT22;11258;52.516;13.318;2023-01-15T10:21:38;8.10;99.90
22185;DHT22;11258;52.516;13.318;2023-01-15T10:24:16;8.00;99.90
22185;DHT22;11258;52.516;13.318;2023-01-15T10:29:53;8.20;99.90
22185;DHT22;11258;52.516;13.318;2023-01-15T10:32:42;8.20;99.90
22185;DHT22;11258;52.516;13.318;2023-01-15T10:46:32;8.50;99.90
22185;DHT22;11258;52.516;13.318;2023-01-15T10:49:10;8.50;99.90
22185;DHT22;11258;52.516;13.318;2023-01-15T10:52:20;8.40;99.90
22185;DHT22;11258;52.516;13.318;2023-01-15T10:54:51;8.40;99.90
22185;DHT22;11258;52.516;13.318;2023-01-15T10:57:47;8.30;99.90
22185;DHT22;11258;52.516;13.318;2023-01-15T11:00:15;8.30;99.90
22185;DHT22;11258;52.516;13.318;2023-01-15T11:02:50;8.40;99.90
22185;DHT22;11258;52.516;13.318;2023-01-15T11:05:19;8.30;99.90
22185;DHT22;11258;52.516;13.318;2023-01-15T11:07:51;8.50;99.90
22185;DHT22;11258;52.516;13.318;2023-01-15T11:10:19;8.60;99.90
22185;DHT22;11258;52.516;13.318;2023-01-15T11:15:59;8.70;99.90
22185;DHT22;11258;52.516;13.318;2023-01-15T11:18:44;8.70;99.90
22185;DHT22;11258;52.516;13.318;2023-01-15T11:21:29;8.70;99.90
22185;DHT22;11258;52.516;13.318;2023-01-15T11:23:56;8.70;99.90
22185;DHT22;11258;52.516;13.318;2023-01-15T11:26:25;8.60;99.90
22185;DHT22;11258;52.516;13.318;2023-01-15T11:28:52;8.50;99.90
22185;DHT22;11258;52.516;13.318;2023-01-15T11:31:18;8.40;99.90
22185;DHT22;11258;52.516;13.318;2023-01-15T11:33:58;8.50;99.90
22185;DHT22;11258;52.516;13.318;2023-01-15T11:36:26;8.50;99.90
22185;DHT22;11258;52.516;13.318;2023-01-15T11:38:53;8.50;99.90
22185;DHT22;11258;52.516;13.318;2023-01-15T11:41:23;8.40;99.90
22185;DHT22;11258;52.516;13.318;2023-01-15T11:44:10;8.40;99.90
22185;DHT22;11258;52.516;13.318;2023-01-15T11:46:54;8.40;99.90
22185;DHT22;11258;52.516;13.318;2023-01-15T11:49:38;8.40;99.90
22185;DHT22;11258;52.516;13.318;2023-01-15T11:52:25;8.40;99.90
22185;DHT22;11258;52.516;13.318;2023-01-15T11:54:53;8.40;99.90
22185;DHT22;11258;52.516;13.318;2023-01-15T11:57:28;8.30;99.90
22185;DHT22;11258;52.516;13.318;2023-01-15T11:59:54;8.40;99.90
22185;DHT22;11258;52.516;13.318;2023-01-15T12:02:40;8.30;99.90
22185;DHT22;11258;52.516;13.318;2023-01-15T12:05:18;8.40;99.90
22185;DHT22;11258;52.516;13.318;2023-01-15T12:07:45;8.40;99.90
22185;DHT22;11258;52.516;13.318;2023-01-15T12:13:05;8.40;99.90
22185;DHT22;11258;52.516;13.318;2023-01-15T12:23:41;8.40;99.90
22185;DHT22;11258;52.516;13.318;2023-01-15T12:26:30;8.30;99.90
22185;DHT22;11258;52.516;13.318;2023-01-15T12:29:12;8.40;99.90
22185;DHT22;11258;52.516;13.318;2023-01-15T12:31:46;8.40;99.90
22185;DHT22;11258;52.516;13.318;2023-01-15T12:34:26;8.50;99.90
22185;DHT22;11258;52.516;13.318;2023-01-15T12:36:59;8.50;99.90
22185;DHT22;11258;52.516;13.318;2023-01-15T12:39:51;8.40;99.90
22185;DHT22;11258;52.516;13.318;2023-01-15T12:42:21;8.40;99.90
22185;DHT22;11258;52.516;13.318;2023-01-15T12:45:14;8.40;99.90
22185;DHT22;11258;52.516;13.318;2023-01-15T12:47:59;8.50;99.90
22185;DHT22;11258;52.516;13.318;2023-01-15T12:55:38;8.30;99.90
22185;DHT22;11258;52.516;13.318;2023-01-15T12:58:12;8.40;99.90
22185;DHT22;11258;52.516;13.318;2023-01-15T13:00:42;8.40;99.90
22185;DHT22;11258;52.516;13.318;2023-01-15T13:03:30;8.30;99.90
22185;DHT22;11258;52.516;13.318;2023-01-15T13:06:04;8.30;99.90
22185;DHT22;11258;52.516;13.318;2023-01-15T13:08:55;8.30;99.90
22185;DHT22;11258;52.516;13.318;2023-01-15T13:11:20;8.30;99.90
22185;DHT22;11258;52.516;13.318;2023-01-15T13:13:45;8.40;99.90
22185;DHT22;11258;52.516;13.318;2023-01-15T13:16:37;8.40;99.90
22185;DHT22;11258;52.516;13.318;2023-01-15T13:21:35;8.50;99.90
22185;DHT22;11258;52.516;13.318;2023-01-15T13:32:02;8.20;99.90
22185;DHT22;11258;52.516;13.318;2023-01-15T13:34:42;8.10;99.90
22185;DHT22;11258;52.516;13.318;2023-01-15T13:37:17;8.10;99.90
22185;DHT22;11258;52.516;13.318;2023-01-15T13:39:45;8.00;99.90
22185;DHT22;11258;52.516;13.318;2023-01-15T13:42:20;7.90;99.90
22185;DHT22;11258;52.516;13.318;2023-01-15T13:45:02;7.90;99.90
22185;DHT22;11258;52.516;13.318;2023-01-15T13:47:32;7.80;99.90
22185;DHT22;11258;52.516;13.318;2023-01-15T13:50:06;7.80;99.90
22185;DHT22;11258;52.516;13.318;2023-01-15T13:52:37;7.70;99.90
22185;DHT22;11258;52.516;13.318;2023-01-15T13:55:10;7.70;99.90
22185;DHT22;11258;52.516;13.318;2023-01-15T13:57:39;7.70;99.90
22185;DHT22;11258;52.516;13.318;2023-01-15T14:00:32;7.80;99.90
22185;DHT22;11258;52.516;13.318;2023-01-15T14:03:00;7.80;99.90
22185;DHT22;11258;52.516;13.318;2023-01-15T14:05:36;7.90;99.90
22185;DHT22;11258;52.516;13.318;2023-01-15T14:08:14;7.90;99.90
22185;DHT22;11258;52.516;13.318;2023-01-15T14:10:41;7.90;99.90
22185;DHT22;11258;52.516;13.318;2023-01-15T14:16:08;7.90;99.90
22185;DHT22;11258;52.516;13.318;2023-01-15T14:24:39;7.80;99.90
22185;DHT22;11258;52.516;13.318;2023-01-15T14:35:19;7.60;99.90
22185;DHT22;11258;52.516;13.318;2023-01-15T14:38:19;7.60;99.90
22185;DHT22;11258;52.516;13.318;2023-01-15T14:40:38;7.50;99.90
22185;DHT22;11258;52.516;13.318;2023-01-15T14:43:17;7.50;99.90
22185;DHT22;11258;52.516;13.318;2023-01-15T14:45:46;7.50;99.90
22185;DHT22;11258;52.516;13.318;2023-01-15T14:50:45;7.50;99.90
22185;DHT22;11258;52.516;13.318;2023-01-15T14:55:48;7.50;99.90
22185;DHT22;11258;52.516;13.318;2023-01-15T15:01:16;7.50;99.90
22185;DHT22;11258;52.516;13.318;2023-01-15T15:06:21;7.50;99.90
22185;DHT22;11258;52.516;13.318;2023-01-15T15:08:48;7.50;99.90
22185;DHT22;11258;52.516;13.318;2023-01-15T15:11:22;7.40;99.90
22185;DHT22;11258;52.516;13.318;2023-01-15T15:14:09;7.30;99.90
22185;DHT22;11258;52.516;13.318;2023-01-15T15:16:42;7.20;99.90
22185;DHT22;11258;52.516;13.318;2023-01-15T15:19:43;7.20;99.90
22185;DHT22;11258;52.516;13.318;2023-01-15T15:22:14;7.10;99.90
22185;DHT22;11258;52.516;13.318;2023-01-15T15:24:46;7.00;99.90
22185;DHT22;11258;52.516;13.318;2023-01-15T15:27:17;7.00;99.90
22185;DHT22;11258;52.516;13.318;2023-01-15T15:29:44;7.00;99.90
22185;DHT22;11258;52.516;13.318;2023-01-15T15:32:16;6.90;99.90
22185;DHT22;11258;52.516;13.318;2023-01-15T15:34:45;6.80;99.90
22185;DHT22;11258;52.516;13.318;2023-01-15T15:37:24;6.80;99.90
22185;DHT22;11258;52.516;13.318;2023-01-15T15:45:22;6.80;99.90
22185;DHT22;11258;52.516;13.318;2023-01-15T15:51:02;6.70;99.90
22185;DHT22;11258;52.516;13.318;2023-01-15T15:53:29;6.70;99.90
22185;DHT22;11258;52.516;13.318;2023-01-15T15:55:57;6.60;99.90
22185;DHT22;11258;52.516;13.318;2023-01-15T15:58:33;6.60;99.90
22185;DHT22;11258;52.516;13.318;2023-01-15T16:01:01;6.60;99.90
22185;DHT22;11258;52.516;13.318;2023-01-15T16:03:29;6.60;99.90
22185;DHT22;11258;52.516;13.318;2023-01-15T16:06:05;6.50;99.90
22185;DHT22;11258;52.516;13.318;2023-01-15T16:08:32;6.50;99.90
22185;DHT22;11258;52.516;13.318;2023-01-15T16:11:07;6.40;99.90
22185;DHT22;11258;52.516;13.318;2023-01-15T16:13:41;6.40;99.90
22185;DHT22;11258;52.516;13.318;2023-01-15T16:16:08;6.40;99.90
22185;DHT22;11258;52.516;13.318;2023-01-15T16:18:47;6.40;99.90
22185;DHT22;11258;52.516;13.318;2023-01-15T16:21:21;6.30;99.90
22185;DHT22;11258;52.516;13.318;2023-01-15T16:23:56;6.30;99.90
22185;DHT22;11258;52.516;13.318;2023-01-15T16:26:34;6.30;99.90
22185;DHT22;11258;52.516;13.318;2023-01-15T16:29:04;6.20;99.90
22185;DHT22;11258;52.516;13.318;2023-01-15T16:31:35;6.20;99.90
22185;DHT22;11258;52.516;13.318;2023-01-15T16:34:02;6.20;99.90
22185;DHT22;11258;52.516;13.318;2023-01-15T16:36:36;6.10;99.90
22185;DHT22;11258;52.516;13.318;2023-01-15T16:39:04;6.10;99.90
22185;DHT22;11258;52.516;13.318;2023-01-15T16:41:37;6.10;99.90
22185;DHT22;11258;52.516;13.318;2023-01-15T16:44:05;6.10;99.90
22185;DHT22;11258;52.516;13.318;2023-01-15T16:46:34;6.10;99.90
22185;DHT22;11258;52.516;13.318;2023-01-15T16:51:47;6.10;99.90
22185;DHT22;11258;52.516;13.318;2023-01-15T16:56:54;6.10;99.90
22185;DHT22;11258;52.516;13.318;2023-01-15T17:02:11;6.10;99.90
22185;DHT22;11258;52.516;13.318;2023-01-15T17:04:40;6.10;99.90
22185;DHT22;11258;52.516;13.318;2023-01-15T17:07:16;6.10;99.90
22185;DHT22;11258;52.516;13.318;2023-01-15T17:09:54;6.10;99.90
22185;DHT22;11258;52.516;13.318;2023-01-15T17:12:32;6.10;99.90
22185;DHT22;11258;52.516;13.318;2023-01-15T17:17:47;6.10;99.90
22185;DHT22;11258;52.516;13.318;2023-01-15T17:20:14;6.00;99.90
22185;DHT22;11258;52.516;13.318;2023-01-15T17:22:42;6.00;99.90
22185;DHT22;11258;52.516;13.318;2023-01-15T17:25:29;6.00;99.90
22185;DHT22;11258;52.516;13.318;2023-01-15T17:27:57;6.00;99.90
22185;DHT22;11258;52.516;13.318;2023-01-15T17:30:24;6.00;99.90
22185;DHT22;11258;52.516;13.318;2023-01-15T17:32:56;6.00;99.90
22185;DHT22;11258;52.516;13.318;2023-01-15T17:37:50;6.00;99.90
22185;DHT22;11258;52.516;13.318;2023-01-15T17:40:16;6.00;99.90
22185;DHT22;11258;52.516;13.318;2023-01-15T17:42:42;6.00;99.90
22185;DHT22;11258;52.516;13.318;2023-01-15T17:45:24;6.00;99.90
22185;DHT22;11258;52.516;13.318;2023-01-15T17:47:50;6.00;99.90
22185;DHT22;11258;52.516;13.318;2023-01-15T17:50:16;6.00;99.90
22185;DHT22;11258;52.516;13.318;2023-01-15T17:52:42;6.00;99.90
22185;DHT22;11258;52.516;13.318;2023-01-15T17:55:16;6.00;99.90
22185;DHT22;11258;52.516;13.318;2023-01-15T17:58:01;6.00;99.90
22185;DHT22;11258;52.516;13.318;2023-01-15T18:00:46;6.00;99.90
22185;DHT22;11258;52.516;13.318;2023-01-15T18:03:31;6.10;99.90
22185;DHT22;11258;52.516;13.318;2023-01-15T18:06:16;6.10;99.90